Time;durP1;ratioP1;P1;durP2;ratioP2;P2;SDS_P1;SDS_P2;PMS_P1;PMS_P2;Temp;Humidity;BMP_temperature;BMP_pressure;BME280_temperature;BME280_humidity;BME280_pressure;Samples;Min_cycle;Max_cycle;Signal;HPM_P1;HPM_P2
2022/06/24 00:00:05;;;;;;;7.30;4.78;;;;;;;17.08;100.00;99376.78;1740073;82;21035;-64
2022/06/24 00:02:32;;;;;;;8.03;4.47;;;;;;;17.09;100.00;99377.59;1742653;82;21101;-65
2022/06/24 00:05:02;;;;;;;6.92;4.50;;;;;;;17.11;100.00;99374.76;1733530;82;21058;-65
2022/06/24 00:07:29;;;;;;;8.05;5.40;;;;;;;17.12;100.00;99376.39;1739088;80;21030;-65
2022/06/24 00:09:55;;;;;;;9.30;4.87;;;;;;;17.13;100.00;99388.20;1743777;80;21497;-65
2022/06/24 00:12:24;;;;;;;7.10;5.08;;;;;;;17.13;100.00;99387.64;1742791;82;21011;-65
2022/06/24 00:14:59;;;;;;;6.97;4.78;;;;;;;17.16;100.00;99386.98;1721908;81;21043;-65
2022/06/24 00:17:28;;;;;;;7.58;5.33;;;;;;;17.17;100.00;99391.36;1747834;80;21581;-64
2022/06/24 00:20:01;;;;;;;7.72;5.28;;;;;;;17.19;100.00;99389.09;1739928;80;20987;-65
2022/06/24 00:22:29;;;;;;;11.85;5.65;;;;;;;17.16;100.00;99387.55;1724003;82;21056;-64
2022/06/24 00:25:12;;;;;;;10.43;5.92;;;;;;;17.12;100.00;99386.01;1729778;82;20987;-65
2022/06/24 00:27:39;;;;;;;12.05;5.47;;;;;;;17.17;100.00;99386.42;1743688;82;21377;-64
2022/06/24 00:30:14;;;;;;;12.30;6.62;;;;;;;17.20;100.00;99398.96;1742675;80;21376;-64
2022/06/24 00:32:45;;;;;;;9.15;6.35;;;;;;;17.22;100.00;99394.50;1743399;82;21556;-64
2022/06/24 00:35:14;;;;;;;9.60;6.10;;;;;;;17.18;100.00;99387.45;1739364;82;20987;-64
2022/06/24 00:37:42;;;;;;;11.90;7.20;;;;;;;17.18;100.00;99392.95;1743932;81;21030;-65
2022/06/24 00:40:17;;;;;;;11.33;7.03;;;;;;;17.22;100.00;99388.43;1740003;80;20964;-63
2022/06/24 00:42:45;;;;;;;11.43;8.05;;;;;;;17.22;100.00;99391.75;1738650;82;20998;-64
2022/06/24 00:45:40;;;;;;;10.82;8.03;;;;;;;17.19;100.00;99389.64;1729028;82;20967;-64
2022/06/24 00:48:10;;;;;;;12.53;7.17;;;;;;;17.18;100.00;99386.08;1730040;82;21126;-64
2022/06/24 00:50:37;;;;;;;9.28;6.80;;;;;;;17.24;100.00;99385.38;1738785;80;20983;-64
2022/06/24 00:53:04;;;;;;;10.25;6.50;;;;;;;17.27;100.00;99377.84;1744478;82;21074;-65
2022/06/24 00:55:34;;;;;;;14.35;7.10;;;;;;;17.24;100.00;99382.63;1743525;81;21086;-64
2022/06/24 00:58:01;;;;;;;11.43;6.67;;;;;;;17.24;100.00;99386.19;1730670;82;21098;-64
2022/06/24 01:00:30;;;;;;;9.53;6.40;;;;;;;17.29;100.00;99378.31;1726963;81;21078;-64
2022/06/24 01:03:01;;;;;;;12.37;6.83;;;;;;;17.30;100.00;99377.19;1730860;80;21176;-64
2022/06/24 01:05:28;;;;;;;12.03;6.62;;;;;;;17.27;100.00;99371.78;1736981;82;21049;-65
2022/06/24 01:07:55;;;;;;;10.98;6.85;;;;;;;17.24;100.00;99380.69;1730196;82;21059;-63
2022/06/24 01:10:21;;;;;;;9.93;6.67;;;;;;;17.24;100.00;99374.37;1723243;82;21090;-65
2022/06/24 01:12:48;;;;;;;11.00;6.80;;;;;;;17.25;100.00;99375.41;1744951;80;21114;-63
2022/06/24 01:15:15;;;;;;;10.32;6.60;;;;;;;17.23;100.00;99371.37;1736693;82;21039;-64
2022/06/24 01:17:42;;;;;;;10.63;6.30;;;;;;;17.20;100.00;99386.59;1737131;80;21596;-63
2022/06/24 01:20:10;;;;;;;9.75;6.35;;;;;;;17.14;100.00;99387.08;1729774;82;21019;-63
2022/06/24 01:22:37;;;;;;;10.28;5.75;;;;;;;17.12;100.00;99383.26;1734367;80;21513;-64
2022/06/24 01:25:05;;;;;;;10.08;6.22;;;;;;;17.17;100.00;99385.86;1740063;81;21525;-63
2022/06/24 01:27:32;;;;;;;11.85;6.20;;;;;;;17.17;100.00;99383.67;1736388;82;21497;-63
2022/06/24 01:29:58;;;;;;;10.08;5.72;;;;;;;17.15;100.00;99377.11;1728982;81;21041;-66
2022/06/24 01:32:25;;;;;;;8.90;5.15;;;;;;;17.17;100.00;99377.61;1743011;82;21062;-65
2022/06/24 01:34:51;;;;;;;;;;;;;;;17.20;100.00;99374.77;1738223;80;21046;-67
2022/06/24 01:37:17;;;;;;;9.35;5.35;;;;;;;17.16;100.00;99382.05;1730010;82;20330;-65
2022/06/24 01:39:44;;;;;;;10.45;5.92;;;;;;;17.04;100.00;99381.30;1730174;82;21078;-65
2022/06/24 01:42:10;;;;;;;8.25;5.42;;;;;;;17.04;100.00;99377.77;1728479;82;21342;-65
2022/06/24 01:44:37;;;;;;;9.65;6.08;;;;;;;17.07;100.00;99376.56;1739177;81;21086;-65
2022/06/24 01:47:04;;;;;;;11.45;6.25;;;;;;;17.11;100.00;99379.47;1745377;81;20968;-65
2022/06/24 01:49:30;;;;;;;11.22;5.90;;;;;;;17.10;100.00;99373.16;1734343;82;21617;-65
2022/06/24 01:51:59;;;;;;;12.85;6.15;;;;;;;17.08;100.00;99376.78;1738358;82;20967;-64
2022/06/24 01:54:26;;;;;;;13.72;5.80;;;;;;;17.11;100.00;99363.75;1741444;81;21695;-65
2022/06/24 01:56:54;;;;;;;10.48;6.05;;;;;;;17.15;100.00;99363.36;1744981;80;21794;-65
2022/06/24 01:59:21;;;;;;;9.18;6.08;;;;;;;17.17;100.00;99363.05;1732644;81;21145;-65
2022/06/24 02:01:47;;;;;;;12.25;6.35;;;;;;;17.14;100.00;99367.27;1733421;82;21035;-64
2022/06/24 02:04:14;;;;;;;12.75;6.85;;;;;;;17.13;100.00;99372.52;1733979;82;21045;-65
2022/06/24 02:06:41;;;;;;;9.33;6.20;;;;;;;17.14;100.00;99368.64;1741529;81;21022;-65
2022/06/24 02:09:08;;;;;;;9.15;5.60;;;;;;;17.15;100.00;99376.30;1730813;81;21079;-66
2022/06/24 02:14:23;;;;;;;12.53;6.00;;;;;;;17.12;100.00;99364.01;1736262;82;21106;-64
2022/06/24 02:16:50;;;;;;;13.03;5.72;;;;;;;17.11;100.00;99364.35;1739115;81;21521;-66
2022/06/24 02:19:16;;;;;;;12.60;6.10;;;;;;;17.12;100.00;99376.95;1741177;80;21079;-63
2022/06/24 02:21:43;;;;;;;10.25;5.90;;;;;;;17.11;100.00;99370.63;1739137;82;21019;-64
2022/06/24 02:24:13;;;;;;;11.05;6.10;;;;;;;17.07;100.00;99365.56;1734257;82;21086;-64
2022/06/24 02:26:38;;;;;;;10.90;6.05;;;;;;;17.02;100.00;99367.09;1722144;82;21031;-65
2022/06/24 02:29:05;;;;;;;12.35;6.42;;;;;;;17.03;100.00;99361.84;1737773;80;21018;-64
2022/06/24 02:31:31;;;;;;;11.35;5.85;;;;;;;17.08;100.00;99363.59;1710049;82;20938;-65
2022/06/24 02:33:58;;;;;;;14.78;6.47;;;;;;;17.06;100.00;99359.81;1740230;82;21089;-64
2022/06/24 02:36:24;;;;;;;13.72;6.55;;;;;;;17.01;100.00;99364.08;1745291;82;21607;-64
2022/06/24 02:38:51;;;;;;;13.20;5.58;;;;;;;17.01;100.00;99368.20;1713838;81;21562;-63
2022/06/24 02:41:17;;;;;;;12.03;6.15;;;;;;;17.06;100.00;99363.13;1744588;80;20987;-64
2022/06/24 02:43:44;;;;;;;10.03;5.58;;;;;;;17.08;100.00;99371.84;1730432;81;21073;-66
2022/06/24 02:46:13;;;;;;;10.90;5.47;;;;;;;17.02;100.00;99371.77;1745895;82;21454;-64
2022/06/24 02:48:41;;;;;;;10.43;5.20;;;;;;;16.99;100.00;99365.55;1735128;81;21022;-65
2022/06/24 02:51:10;;;;;;;11.85;6.08;;;;;;;17.02;100.00;99372.58;1702355;82;20964;-65
2022/06/24 02:53:36;;;;;;;9.85;5.58;;;;;;;17.01;100.00;99367.39;1693888;84;21107;-65
2022/06/24 02:56:06;;;;;;;9.90;5.50;;;;;;;16.98;100.00;99368.86;1743171;82;21474;-65
2022/06/24 02:58:34;;;;;;;10.78;5.45;;;;;;;16.95;100.00;99366.76;1734820;80;21019;-64
2022/06/24 03:01:00;;;;;;;12.80;5.87;;;;;;;16.97;100.00;99367.23;1743060;81;20984;-65
2022/06/24 03:03:27;;;;;;;8.93;5.10;;;;;;;17.01;100.00;99369.58;1738041;80;21066;-65
2022/06/24 03:05:54;;;;;;;8.08;5.15;;;;;;;17.02;100.00;99364.34;1742888;82;21521;-66
2022/06/24 03:08:23;;;;;;;7.92;4.87;;;;;;;17.01;100.00;99366.83;1737641;80;21398;-66
2022/06/24 03:10:50;;;;;;;9.78;5.15;;;;;;;16.98;100.00;99370.23;1730469;82;20953;-64
2022/06/24 03:13:17;;;;;;;8.13;4.50;;;;;;;17.01;100.00;99369.58;1735723;80;21130;-64
2022/06/24 03:15:45;;;;;;;8.88;4.35;;;;;;;17.05;100.00;99369.75;1733685;82;21023;-65
2022/06/24 03:18:12;;;;;;;11.10;5.40;;;;;;;17.04;100.00;99368.15;1743081;80;21197;-65
2022/06/24 03:20:39;;;;;;;10.60;4.97;;;;;;;17.05;100.00;99372.50;1743237;82;21062;-65
2022/06/24 03:23:05;;;;;;;9.18;4.75;;;;;;;17.06;100.00;99372.75;1737580;80;21079;-65
2022/06/24 03:25:32;;;;;;;10.53;4.90;;;;;;;17.09;100.00;99372.09;1755406;81;21002;-65
2022/06/24 03:28:04;;;;;;;13.93;5.17;;;;;;;17.13;100.00;99365.63;1736914;80;21731;-66
2022/06/24 03:30:32;;;;;;;8.90;4.70;;;;;;;17.14;100.00;99363.70;1675999;85;20977;-65
2022/06/24 03:32:59;;;;;;;9.30;5.30;;;;;;;17.11;100.00;99370.63;1741582;80;21406;-66
2022/06/24 03:35:26;;;;;;;9.23;4.42;;;;;;;17.16;100.00;99365.55;1741818;81;20974;-65
2022/06/24 03:37:52;;;;;;;9.78;4.97;;;;;;;17.19;100.00;99356.64;1735352;80;21042;-65
2022/06/24 03:40:18;;;;;;;15.15;5.47;;;;;;;17.22;100.00;99370.55;1735786;80;21010;-66
2022/06/24 03:42:45;;;;;;;8.18;4.40;;;;;;;17.21;100.00;99369.52;1737098;80;21074;-64
2022/06/24 03:45:12;;;;;;;9.20;4.58;;;;;;;17.20;100.00;99363.20;1740625;80;21005;-66
2022/06/24 03:47:39;;;;;;;9.00;4.22;;;;;;;17.21;100.00;99359.33;1732970;81;20975;-66
2022/06/24 03:50:06;;;;;;;7.40;4.03;;;;;;;17.26;100.00;99367.97;1738009;80;21058;-64
2022/06/24 03:52:32;;;;;;;8.40;4.37;;;;;;;17.29;100.00;99361.81;1739324;82;21499;-64
2022/06/24 03:55:00;;;;;;;10.80;4.15;;;;;;;17.29;100.00;99365.38;1740820;80;21011;-64
2022/06/24 03:57:27;;;;;;;7.47;3.87;;;;;;;17.32;100.00;99365.31;1744944;80;21523;-66
2022/06/24 03:59:54;;;;;;;;;;;;;;;17.42;100.00;99366.35;1739607;80;21019;-65
2022/06/24 04:02:21;;;;;;;10.03;4.15;;;;;;;17.50;100.00;99373.77;1745817;82;20479;-64
2022/06/24 04:04:48;;;;;;;7.97;4.40;;;;;;;17.47;100.00;99376.36;1730087;82;21070;-65
2022/06/24 04:07:14;;;;;;;9.55;4.58;;;;;;;17.46;100.00;99367.88;1736244;80;21069;-64
2022/06/24 04:09:41;;;;;;;7.47;4.15;;;;;;;17.49;100.00;99368.04;1731700;82;21082;-68
2022/06/24 04:12:10;;;;;;;7.22;3.90;;;;;;;17.58;100.00;99377.11;1740675;81;20991;-68
2022/06/24 04:17:22;;;;;;;11.43;4.20;;;;;;;17.60;100.00;99367.16;1740826;80;21041;-66
2022/06/24 04:19:52;;;;;;;7.15;3.85;;;;;;;17.56;100.00;99362.88;1740656;81;21050;-65
2022/06/24 04:22:19;;;;;;;8.00;4.30;;;;;;;17.57;100.00;99366.44;1721673;82;21053;-64
2022/06/24 04:24:46;;;;;;;8.30;4.40;;;;;;;17.59;100.00;99369.10;1741888;81;21414;-65
2022/06/24 04:27:13;;;;;;;10.08;4.37;;;;;;;17.61;100.00;99373.70;1738775;82;20979;-66
2022/06/24 04:29:39;;;;;;;;;;;;;;;17.62;100.00;99371.77;1743097;80;21062;-65
2022/06/24 04:32:07;;;;;;;8.30;3.97;;;;;;;17.63;100.00;99364.56;1743324;82;20161;-65
2022/06/24 04:34:37;;;;;;;6.20;3.72;;;;;;;17.57;100.00;99368.60;1735747;82;21571;-64
2022/06/24 04:37:04;;;;;;;8.75;4.12;;;;;;;17.65;100.00;99369.73;1740679;82;21007;-64
2022/06/24 04:39:31;;;;;;;6.53;4.15;;;;;;;17.72;100.00;99370.84;1749894;80;21082;-64
2022/06/24 04:41:58;;;;;;;10.10;4.80;;;;;;;17.75;100.00;99366.63;1735548;82;21046;-65
2022/06/24 04:44:24;;;;;;;7.80;4.10;;;;;;;17.77;100.00;99378.13;1726191;82;21288;-64
2022/06/24 04:46:51;;;;;;;9.65;4.65;;;;;;;17.76;100.00;99379.26;1746084;82;20947;-63
2022/06/24 04:49:17;;;;;;;7.20;4.12;;;;;;;17.79;100.00;99388.23;1741576;80;21006;-63
2022/06/24 04:51:43;;;;;;;10.35;4.45;;;;;;;17.83;100.00;99385.07;1728642;80;20999;-65
2022/06/24 04:54:10;;;;;;;10.68;4.15;;;;;;;17.88;100.00;99384.34;1736030;82;21094;-67
2022/06/24 04:56:37;;;;;;;9.10;4.35;;;;;;;17.92;100.00;99381.74;1730652;82;20983;-67
2022/06/24 04:59:04;;;;;;;8.53;4.15;;;;;;;17.97;100.00;99381.55;1732331;82;21103;-67
2022/06/24 05:01:31;;;;;;;9.43;4.42;;;;;;;17.93;100.00;99377.83;1745384;81;20951;-67
2022/06/24 05:04:00;;;;;;;8.03;3.85;;;;;;;17.94;100.00;99384.15;1742510;80;21058;-67
2022/06/24 05:06:27;;;;;;;9.90;4.17;;;;;;;18.02;100.00;99383.33;1733582;81;21035;-65
2022/06/24 05:08:54;;;;;;;9.55;4.40;;;;;;;18.18;100.00;99381.06;1734449;80;21529;-66
2022/06/24 05:11:21;;;;;;;7.92;4.70;;;;;;;18.28;100.00;99386.80;1725465;80;21042;-65
2022/06/24 05:13:48;;;;;;;8.10;4.20;;;;;;;18.34;100.00;99388.22;1741039;80;21023;-67
2022/06/24 05:16:15;;;;;;;12.28;3.80;;;;;;;18.40;100.00;99377.24;1735133;81;21035;-66
2022/06/24 05:18:41;;;;;;;5.95;3.40;;;;;;;18.50;100.00;99376.86;1745579;80;21102;-70
2022/06/24 05:21:08;;;;;;;7.90;3.70;;;;;;;18.78;100.00;99384.10;1740692;81;20986;-70
2022/06/24 05:23:36;;;;;;;7.58;2.80;;;;;;;19.25;100.00;99390.26;1744126;80;21043;-67
2022/06/24 05:26:03;;;;;;;7.37;3.20;;;;;;;19.69;100.00;99384.63;1720033;81;21019;-67
2022/06/24 05:28:29;;;;;;;7.72;3.20;;;;;;;19.99;100.00;99376.97;1747812;80;21086;-66
2022/06/24 05:30:58;;;;;;;6.85;2.67;;;;;;;20.34;100.00;99377.63;1746623;81;21095;-63
2022/06/24 05:33:24;;;;;;;3.30;2.10;;;;;;;20.81;100.00;99386.25;1738523;80;21116;-64
2022/06/24 05:35:53;;;;;;;7.78;2.20;;;;;;;21.40;100.00;99373.81;1702496;82;21063;-63
2022/06/24 05:38:22;;;;;;;5.80;2.05;;;;;;;21.73;100.00;99368.22;1740813;80;21409;-63
2022/06/24 05:40:51;;;;;;;4.85;2.02;;;;;;;21.74;100.00;99367.06;1737774;82;21537;-63
2022/06/24 05:43:18;;;;;;;8.88;1.87;;;;;;;21.76;100.00;99366.12;1744415;82;21022;-64
2022/06/24 05:45:46;;;;;;;6.10;1.98;;;;;;;21.87;100.00;99369.75;1740682;81;21050;-64
2022/06/24 05:48:14;;;;;;;2.85;1.80;;;;;;;21.76;100.00;99368.08;1744658;80;21078;-63
2022/06/24 05:50:40;;;;;;;5.80;2.22;;;;;;;21.41;100.00;99363.75;1725719;82;21062;-63
2022/06/24 05:55:58;;;;;;;7.22;2.12;;;;;;;20.94;100.00;99367.66;1730322;82;21054;-64
2022/06/24 05:58:26;;;;;;;4.00;2.17;;;;;;;20.73;100.00;99371.96;1723112;80;21714;-63
2022/06/24 06:00:54;;;;;;;6.12;2.00;;;;;;;20.64;100.00;99370.48;1754960;81;20986;-63
2022/06/24 06:03:25;;;;;;;3.45;1.80;;;;;;;20.57;100.00;99368.30;1753040;80;21102;-64
2022/06/24 06:05:52;;;;;;;2.37;1.60;;;;;;;20.49;100.00;99373.38;1748807;81;21017;-64
2022/06/24 06:08:18;;;;;;;4.33;2.00;;;;;;;20.46;100.00;99380.16;1752038;80;21513;-64
2022/06/24 06:10:45;;;;;;;3.62;1.82;;;;;;;20.42;100.00;99385.58;1750269;80;21446;-63
2022/06/24 06:13:12;;;;;;;3.80;1.90;;;;;;;20.43;100.00;99383.63;1756527;80;21010;-64
2022/06/24 06:15:40;;;;;;;4.53;1.90;;;;;;;20.52;100.00;99382.34;1738558;81;21062;-63
2022/06/24 06:18:07;;;;;;;3.62;2.00;;;;;;;20.63;100.00;99385.45;1768614;80;21032;-63
2022/06/24 06:20:34;;;;;;;4.28;1.75;;;;;;;20.92;100.00;99378.28;1744755;80;21478;-63
2022/06/24 06:23:00;;;;;;;4.53;1.87;;;;;;;21.39;100.00;99371.62;1757553;80;21093;-63
2022/06/24 06:25:27;;;;;;;4.05;1.98;;;;;;;21.96;100.00;99356.58;1757812;80;21541;-66
2022/06/24 06:27:53;;;;;;;2.85;1.80;;;;;;;22.52;100.00;99362.73;1757624;80;21077;-66
2022/06/24 06:30:20;;;;;;;5.92;1.90;;;;;;;22.96;100.00;99352.27;1746646;80;21013;-67
2022/06/24 06:32:47;;;;;;;2.65;1.62;;;;;;;23.51;100.00;99358.84;1729735;81;21078;-65
2022/06/24 06:35:13;;;;;;;4.50;1.92;;;;;;;23.51;100.00;99358.84;1749789;80;21460;-66
2022/06/24 06:37:40;;;;;;;8.48;2.17;;;;;;;23.80;100.00;99349.09;1759772;80;21504;-66
2022/06/24 06:40:08;;;;;;;3.95;1.90;;;;;;;24.08;100.00;99359.33;1755491;80;21046;-65
2022/06/24 06:42:35;;;;;;;5.08;2.10;;;;;;;24.22;100.00;99361.00;1755254;81;21130;-66
2022/06/24 06:45:04;;;;;;;4.50;1.82;;;;;;;24.25;98.85;99365.01;1752454;80;21041;-67
2022/06/24 06:47:31;;;;;;;5.15;1.85;;;;;;;24.10;100.00;99374.23;1759686;81;20975;-65
2022/06/24 06:49:57;;;;;;;3.72;1.70;;;;;;;23.94;100.00;99370.78;1755405;80;21002;-64
2022/06/24 06:52:24;;;;;;;2.52;1.70;;;;;;;23.93;100.00;99378.31;1758585;81;20958;-67
2022/06/24 06:54:50;;;;;;;4.97;2.80;;;;;;;24.05;100.00;99378.15;1746361;80;21038;-66
2022/06/24 06:57:16;;;;;;;7.25;1.98;;;;;;;23.89;96.85;99389.95;1734834;80;21034;-66
2022/06/24 06:59:43;;;;;;;4.12;1.90;;;;;;;23.71;92.44;99396.55;1738334;80;21074;-65
2022/06/24 07:02:09;;;;;;;5.53;1.92;;;;;;;23.61;93.38;99399.12;1734369;80;20947;-65
2022/06/24 07:04:36;;;;;;;3.55;2.00;;;;;;;23.53;95.57;99391.80;1737926;80;21066;-64
2022/06/24 07:07:04;;;;;;;5.45;1.80;;;;;;;23.47;93.28;99386.33;1732268;81;20959;-66
2022/06/24 07:09:30;;;;;;;3.17;1.80;;;;;;;23.29;94.25;99381.77;1731955;80;21655;-66
2022/06/24 07:14:19;;;;;;;4.58;2.67;;;;;;;23.30;96.18;99395.88;1857010;76;22755;-63
2022/06/24 07:16:46;;;;;;;7.25;2.20;;;;;;;23.26;97.30;99390.25;1828529;77;21030;-64
2022/06/24 07:19:14;;;;;;;4.60;1.55;;;;;;;23.16;97.38;99390.83;1822303;77;21420;-67
2022/06/24 07:21:41;;;;;;;6.78;2.35;;;;;;;23.19;100.00;99384.54;1819766;77;21056;-67
2022/06/24 07:24:08;;;;;;;5.25;2.00;;;;;;;23.19;100.00;99384.54;1832992;77;21046;-66
2022/06/24 07:26:34;;;;;;;5.85;2.67;;;;;;;23.32;100.00;99387.97;1832509;77;21035;-66
2022/06/24 07:29:01;;;;;;;4.05;2.00;;;;;;;23.42;100.00;99388.03;1826161;77;21106;-65
2022/06/24 07:31:27;;;;;;;3.47;1.70;;;;;;;23.50;100.00;99388.38;1813342;77;20935;-65
2022/06/24 07:33:54;;;;;;;4.95;1.90;;;;;;;23.54;100.00;99398.97;1806884;78;21097;-64
2022/06/24 07:36:20;;;;;;;2.60;1.60;;;;;;;23.43;99.54;99397.95;1829079;77;21522;-65
2022/06/24 07:38:47;;;;;;;2.55;1.80;;;;;;;23.23;100.00;99399.31;1822400;77;21036;-65
2022/06/24 07:41:14;;;;;;;3.60;2.27;;;;;;;23.09;100.00;99393.45;1824769;77;21049;-64
2022/06/24 07:43:40;;;;;;;5.15;2.15;;;;;;;23.07;100.00;99396.34;1824446;77;21014;-65
2022/06/24 07:46:08;;;;;;;4.62;2.60;;;;;;;23.07;100.00;99396.34;1826154;77;21026;-65
2022/06/24 07:48:35;;;;;;;4.85;2.10;;;;;;;23.04;100.00;99394.30;1833159;77;21035;-66
2022/06/24 07:51:12;;;;;;;3.67;2.00;;;;;;;23.00;100.00;99397.57;1820349;77;20986;-64
2022/06/24 07:53:40;;;;;;;4.87;2.10;;;;;;;23.00;100.00;99391.44;1823094;77;21370;-65
2022/06/24 07:58:52;;;;;;;6.42;2.20;;;;;;;23.09;100.00;99387.89;1831920;76;21038;-65
2022/06/24 08:01:18;;;;;;;6.83;2.60;;;;;;;23.21;100.00;99388.33;1819161;77;21386;-63
2022/06/24 08:03:45;;;;;;;3.17;2.10;;;;;;;23.39;100.00;99395.64;1819866;76;21088;-66
2022/06/24 08:06:12;;;;;;;6.58;2.12;;;;;;;23.58;100.00;99382.61;1841062;77;20994;-68
2022/06/24 08:08:39;;;;;;;3.92;2.37;;;;;;;23.58;100.00;99382.61;1816400;77;21123;-66
2022/06/24 08:11:06;;;;;;;4.85;2.20;;;;;;;23.78;98.28;99389.74;1809145;77;20993;-66
2022/06/24 08:13:32;;;;;;;5.58;1.98;;;;;;;23.78;98.28;99389.74;1825888;77;21552;-64
2022/06/24 08:16:00;;;;;;;3.87;1.90;;;;;;;23.81;95.90;99390.98;1825758;77;20962;-65
2022/06/24 08:18:27;;;;;;;5.10;2.30;;;;;;;23.76;98.27;99399.63;1814817;77;21528;-66
2022/06/24 08:20:53;;;;;;;4.67;2.05;;;;;;;23.84;100.00;99393.63;1821476;77;21061;-67
2022/06/24 08:23:20;;;;;;;3.10;2.17;;;;;;;24.16;100.00;99409.73;1824520;77;21022;-68
2022/06/24 08:25:47;;;;;;;4.22;2.15;;;;;;;24.22;92.33;99394.95;1831215;77;21026;-67
2022/06/24 08:28:13;;;;;;;4.42;2.17;;;;;;;24.15;94.27;99402.59;1828611;77;21081;-64
2022/06/24 08:30:40;;;;;;;3.55;2.15;;;;;;;24.08;92.47;99394.09;1830697;77;21025;-62
2022/06/24 08:33:08;;;;;;;4.78;2.50;;;;;;;;;;1824662;77;21710;-64
2022/06/24 08:35:34;;;;;;;5.05;2.37;;;;;;;24.10;100.00;99394.51;1821716;77;21038;-60
2022/06/24 08:38:01;;;;;;;4.33;2.10;;;;;;;24.07;100.00;99391.08;1812988;77;21595;-64
2022/06/24 08:40:28;;;;;;;2.52;1.95;;;;;;;24.20;100.00;99395.89;1819997;77;20983;-64
2022/06/24 08:42:58;;;;;;;7.40;2.62;;;;;;;24.22;95.11;99390.78;1807431;77;21096;-61
2022/06/24 08:45:25;;;;;;;4.55;2.27;;;;;;;24.11;98.51;99393.34;1827304;77;21000;-64
2022/06/24 08:47:51;;;;;;;4.15;2.65;;;;;;;24.07;100.00;99398.03;1861159;75;21547;-64
2022/06/24 08:50:18;;;;;;;5.22;2.42;;;;;;;24.05;97.70;99395.41;1833465;77;20985;-63
2022/06/24 08:52:50;;;;;;;5.17;2.55;;;;;;;24.00;92.14;99388.17;1801848;78;21053;-61
2022/06/24 08:55:19;;;;;;;5.25;2.30;;;;;;;23.89;90.00;99377.44;1834073;77;21521;-61
2022/06/24 08:57:46;;;;;;;3.98;2.42;;;;;;;23.86;95.18;99390.69;1841047;77;21143;-62
2022/06/24 09:00:13;;;;;;;3.30;2.47;;;;;;;23.91;100.00;99388.20;1816987;77;20950;-63
2022/06/24 09:02:40;;;;;;;4.37;2.30;;;;;;;23.95;98.09;99383.52;1794242;78;21077;-62
2022/06/24 09:05:12;;;;;;;5.03;2.72;;;;;;;23.96;96.23;99383.13;1839931;77;20940;-63
2022/06/24 09:07:39;;;;;;;5.33;2.55;;;;;;;24.03;93.98;99384.65;1824271;77;20989;-62
2022/06/24 09:10:12;;;;;;;5.45;2.42;;;;;;;24.07;87.03;99384.13;1826372;77;20966;-63
2022/06/24 09:12:44;;;;;;;3.50;2.52;;;;;;;24.04;84.64;99373.75;1814449;77;21935;-63
2022/06/24 09:15:15;;;;;;;5.20;2.62;;;;;;;24.04;90.57;99380.70;1841571;77;21454;-63
2022/06/24 09:17:43;;;;;;;2.90;2.10;;;;;;;24.11;85.05;99371.68;1820626;77;20962;-62
2022/06/24 09:20:24;;;;;;;4.33;2.45;;;;;;;24.13;87.44;99375.72;1827766;77;20958;-63
2022/06/24 09:22:53;;;;;;;3.42;2.20;;;;;;;24.22;91.44;99369.92;1798191;75;21069;-62
2022/06/24 09:25:20;;;;;;;5.55;2.42;;;;;;;24.37;89.91;99380.12;1794518;78;20986;-61
2022/06/24 09:27:46;;;;;;;5.12;2.92;;;;;;;24.45;84.55;99372.09;1821214;77;21659;-63
2022/06/24 09:30:17;;;;;;;5.80;2.70;;;;;;;24.40;84.04;99368.25;1825518;77;21000;-61
2022/06/24 09:32:53;;;;;;;3.02;2.55;;;;;;;24.31;88.37;99369.07;1780658;79;21563;-62
2022/06/24 09:35:22;;;;;;;4.10;2.62;;;;;;;24.35;88.08;99363.57;1784401;79;21029;-61
2022/06/24 09:37:50;;;;;;;4.35;2.60;;;;;;;24.48;88.89;99362.22;1763317;80;21106;-61
2022/06/24 09:40:32;;;;;;;4.70;2.42;;;;;;;24.62;85.64;99366.62;1791712;79;20994;-62
2022/06/24 09:43:01;;;;;;;5.75;2.87;;;;;;;24.62;85.71;99361.83;1772096;79;21122;-60
2022/06/24 09:45:49;;;;;;;6.08;2.75;;;;;;;24.59;83.27;99368.73;1760233;81;20973;-60
2022/06/24 09:48:30;;;;;;;4.62;2.70;;;;;;;24.56;83.51;99355.56;1791123;79;21094;-61
2022/06/24 09:51:00;;;;;;;4.20;2.55;;;;;;;24.56;84.14;99349.42;1790828;79;20961;-62
2022/06/24 09:53:27;;;;;;;3.65;2.50;;;;;;;24.55;85.90;99351.20;1788635;79;21688;-62
2022/06/24 09:55:54;;;;;;;5.70;2.40;;;;;;;24.55;83.83;99343.63;1784935;79;20957;-61
2022/06/24 09:58:21;;;;;;;5.00;2.60;;;;;;;24.57;88.51;99351.61;1792835;79;21078;-62
2022/06/24 10:00:48;;;;;;;7.58;2.67;;;;;;;24.78;88.49;99348.56;1785619;79;21439;-63
2022/06/24 10:03:15;;;;;;;4.42;2.50;;;;;;;25.04;82.38;99343.60;1774337;79;21441;-62
2022/06/24 10:05:46;;;;;;;3.62;2.45;;;;;;;25.35;80.96;99349.95;1782908;79;20962;-62
2022/06/24 10:08:23;;;;;;;5.45;2.47;;;;;;;25.60;71.44;99335.16;1738404;81;21060;-62
2022/06/24 10:10:52;;;;;;;4.22;2.30;;;;;;;25.62;65.30;99331.98;1729377;81;21387;-62
2022/06/24 10:13:32;;;;;;;4.03;2.50;;;;;;;25.51;68.83;99338.02;1756364;80;21063;-61
2022/06/24 10:16:04;;;;;;;3.17;2.37;;;;;;;25.42;67.05;99346.66;1757926;80;21416;-62
2022/06/24 10:18:39;;;;;;;4.30;2.55;;;;;;;25.33;69.43;99343.34;1728563;82;21628;-62
2022/06/24 10:21:08;;;;;;;4.45;2.50;;;;;;;25.21;71.16;99338.04;1741211;81;21534;-62
2022/06/24 10:23:44;;;;;;;4.80;2.95;;;;;;;25.01;75.49;99337.37;1752043;81;21022;-62
2022/06/24 10:26:29;;;;;;;3.35;2.70;;;;;;;24.95;80.19;99347.82;1714030;82;20991;-61
2022/06/24 10:29:07;;;;;;;3.42;2.33;;;;;;;24.91;76.47;99332.46;1754858;80;21076;-63
2022/06/24 10:31:49;;;;;;;3.62;2.52;;;;;;;24.99;80.51;99336.15;1750122;81;21517;-62
2022/06/24 10:34:30;;;;;;;3.25;2.12;;;;;;;25.28;78.63;99330.36;1733959;81;21500;-62
2022/06/24 10:37:21;;;;;;;3.72;2.25;;;;;;;25.50;71.96;99333.03;1751543;81;21034;-62
2022/06/24 10:39:58;;;;;;;3.50;2.05;;;;;;;25.52;74.32;99325.11;1735902;81;21089;-64
2022/06/24 10:42:27;;;;;;;4.40;2.30;;;;;;;25.60;71.39;99339.93;1738984;81;21386;-62
2022/06/24 10:45:02;;;;;;;3.37;2.27;;;;;;;25.62;67.99;99327.80;1731785;81;21037;-62
2022/06/24 10:47:39;;;;;;;3.05;2.27;;;;;;;25.60;65.51;99325.41;1754226;81;21485;-64
2022/06/24 10:50:11;;;;;;;5.22;2.40;;;;;;;25.44;63.73;99332.33;1753132;81;21014;-62
2022/06/24 10:52:48;;;;;;;4.30;2.22;;;;;;;25.25;65.43;99325.77;1754886;80;21461;-63
2022/06/24 10:55:28;;;;;;;5.22;2.25;;;;;;;25.31;68.03;99327.61;1757575;80;21093;-62
2022/06/24 10:58:00;;;;;;;4.03;2.50;;;;;;;25.37;66.29;99333.64;1733979;82;21560;-62
2022/06/24 11:00:48;;;;;;;3.83;2.00;;;;;;;25.32;63.87;99329.81;1745742;81;21035;-61
2022/06/24 11:03:16;;;;;;;3.95;2.30;;;;;;;25.22;63.00;99324.33;1752571;81;21176;-61
2022/06/24 11:05:45;;;;;;;4.17;2.45;;;;;;;25.21;70.10;99321.33;1752404;81;21023;-61
2022/06/24 11:08:16;;;;;;;4.85;2.15;;;;;;;25.33;67.82;99323.07;1732372;81;21576;-62
2022/06/24 11:10:43;;;;;;;4.53;2.17;;;;;;;25.33;65.26;99326.63;1735013;81;20982;-61
2022/06/24 11:13:10;;;;;;;4.65;2.35;;;;;;;25.38;65.16;99324.11;1760048;81;21541;-60
2022/06/24 11:15:46;;;;;;;3.98;2.10;;;;;;;25.56;67.75;99325.15;1769943;80;21047;-62
2022/06/24 11:18:23;;;;;;;6.05;2.15;;;;;;;25.69;63.15;99321.70;1769821;80;21050;-60
2022/06/24 11:20:56;;;;;;;3.35;2.27;;;;;;;25.63;64.81;99317.67;1769328;80;20969;-62
2022/06/24 11:23:24;;;;;;;4.17;2.00;;;;;;;25.53;62.22;99311.98;1770596;80;21037;-61
2022/06/24 11:25:58;;;;;;;3.50;2.20;;;;;;;25.39;61.41;99298.67;1770863;80;21012;-60
2022/06/24 11:28:32;;;;;;;4.40;2.27;;;;;;;25.39;63.34;99302.84;1771098;80;20994;-61
2022/06/24 11:31:26;;;;;;;6.17;2.37;;;;;;;25.49;63.46;99299.37;1776417;80;21023;-62
2022/06/24 11:34:04;;;;;;;3.65;2.40;;;;;;;25.55;63.73;99295.67;1770918;80;21628;-60
2022/06/24 11:36:32;;;;;;;4.10;2.70;;;;;;;25.57;66.98;99301.68;1759136;81;21030;-62
2022/06/24 11:39:05;;;;;;;3.95;2.40;;;;;;;25.62;60.64;99298.53;1761541;80;21651;-61
2022/06/24 11:41:43;;;;;;;5.03;2.45;;;;;;;25.63;60.96;99292.59;1772108;80;20995;-62
2022/06/24 11:44:09;;;;;;;2.95;2.30;;;;;;;25.85;58.39;99295.59;1762238;81;21635;-62
2022/06/24 11:46:36;;;;;;;4.33;2.05;;;;;;;25.85;58.39;99295.59;1750636;80;21515;-64